Pine Mountain Club, California
Current Conditions -  °F | °C
As of 4:48 PM on Tuesday 25 Nov 2014 (Local Time) from KSDB Reporting Station
Clear Clear  
Wind Chill: 59°   Ceiling: Unl
Heat Index: 59°   Visibility: 10mi
Dew Point: -2°   Wind: 24mph
Humidity: 8%   Direction: 320°NW
Pressure: 30.42"   Gusts: NA
Location:  34.9441°N, 119.155°W
Report Text: KSDB 260048Z AUTO 32021KT 10SM CLR 15/M19 A3042 RMK AO2 PK WND 32026/0046 SLP272 T01501189
Loading
Personal Weather Stations






























Interactive Weather Map New forecast layout! Learn more

10-Day Weather Forecast

Advertisements
Track Severe Weather on mobile